TimeCDT,TemperatureF,Dew PointF,Humidity,Sea Level PressureIn,VisibilityMPH,Wind Direction,Wind SpeedMPH,Gust SpeedMPH,PrecipitationIn,Events,Conditions,WindDirDegrees,DateUTC
12:53 AM,46.9,19.9,34,30.38,10.0,ENE,5.8,-,N/A,,Clear,60,2013-03-26 05:53:00
1:53 AM,46.9,19.9,34,30.38,10.0,NE,9.2,-,N/A,,Clear,40,2013-03-26 06:53:00
2:53 AM,46.9,21.0,36,30.38,10.0,NE,11.5,-,N/A,,Clear,40,2013-03-26 07:53:00
3:53 AM,46.0,19.9,35,30.38,10.0,NE,10.4,-,N/A,,Clear,50,2013-03-26 08:53:00
4:53 AM,44.1,19.0,37,30.39,10.0,NE,5.8,-,N/A,,Clear,40,2013-03-26 09:53:00
5:53 AM,43.0,19.0,38,30.40,10.0,ENE,5.8,-,N/A,,Clear,70,2013-03-26 10:53:00
6:53 AM,41.0,19.9,43,30.43,10.0,NE,4.6,-,N/A,,Clear,40,2013-03-26 11:53:00
7:53 AM,41.0,19.9,43,30.45,10.0,ENE,5.8,-,N/A,,Clear,60,2013-03-26 12:53:00
8:53 AM,45.0,19.9,37,30.48,10.0,East,9.2,-,N/A,,Clear,80,2013-03-26 13:53:00
9:53 AM,50.0,18.0,28,30.50,10.0,East,5.8,-,N/A,,Clear,90,2013-03-26 14:53:00
10:53 AM,53.1,18.0,25,30.49,10.0,East,6.9,-,N/A,,Clear,100,2013-03-26 15:53:00
11:53 AM,57.0,19.0,23,30.47,10.0,Variable,3.5,-,N/A,,Clear,0,2013-03-26 16:53:00
12:53 PM,60.1,19.9,21,30.44,10.0,ENE,5.8,-,N/A,,Clear,60,2013-03-26 17:53:00
1:53 PM,62.1,18.0,18,30.39,10.0,Variable,3.5,-,N/A,,Clear,0,2013-03-26 18:53:00
2:53 PM,64.0,18.0,17,30.35,10.0,Variable,6.9,-,N/A,,Clear,0,2013-03-26 19:53:00
3:53 PM,64.9,18.0,16,30.32,10.0,NNE,3.5,-,N/A,,Clear,20,2013-03-26 20:53:00
4:53 PM,64.9,17.1,16,30.30,10.0,SSE,8.1,-,N/A,,Clear,160,2013-03-26 21:53:00
5:53 PM,66.0,18.0,16,30.28,10.0,SSE,5.8,-,N/A,,Clear,150,2013-03-26 22:53:00
6:53 PM,64.0,17.1,16,30.28,10.0,SE,6.9,-,N/A,,Clear,140,2013-03-26 23:53:00
7:53 PM,59.0,18.0,20,30.28,10.0,SE,4.6,-,N/A,,Clear,130,2013-03-27 00:53:00
8:53 PM,55.0,21.0,27,30.28,10.0,ESE,4.6,-,N/A,,Clear,120,2013-03-27 01:53:00
9:53 PM,54.0,19.9,26,30.29,10.0,ESE,4.6,-,N/A,,Clear,120,2013-03-27 02:53:00
10:53 PM,52.0,25.0,35,30.32,10.0,SE,9.2,-,N/A,,Clear,140,2013-03-27 03:53:00
11:53 PM,50.0,28.9,44,30.32,10.0,SE,6.9,-,N/A,,Clear,140,2013-03-27 04:53:00